Time;durP1;ratioP1;P1;durP2;ratioP2;P2;SDS_P1;SDS_P2;PMS_P1;PMS_P2;Temp;Humidity;BMP_temperature;BMP_pressure;BME280_temperature;BME280_humidity;BME280_pressure;Samples;Min_cycle;Max_cycle;Signal;HPM_P1;HPM_P2
2022/04/22 00:01:31;;;;;;;1.25;1.05;;;;;;;10.04;84.59;100672.81;5047369;28;20037;-70
2022/04/22 00:03:56;;;;;;;1.50;0.98;;;;;;;9.95;84.73;100669.50;5044649;28;20055;-70
2022/04/22 00:06:22;;;;;;;1.00;0.77;;;;;;;9.92;84.92;100673.69;5034852;28;20095;-69
2022/04/22 00:08:47;;;;;;;2.20;0.90;;;;;;;9.92;85.45;100678.28;5048142;28;20029;-70
2022/04/22 00:11:30;;;;;;;0.60;0.60;;;;;;;9.92;85.27;100671.00;5031465;28;20379;-69
2022/04/22 00:14:01;;;;;;;1.20;0.70;;;;;;;9.93;85.21;100674.47;5030194;28;20438;-69
2022/04/22 00:16:28;;;;;;;0.75;0.52;;;;;;;9.92;84.69;100671.00;5047328;28;20064;-70
2022/04/22 00:18:54;;;;;;;4.22;0.88;;;;;;;9.93;85.24;100666.38;5048394;28;20516;-70
2022/04/22 00:21:20;;;;;;;1.67;1.10;;;;;;;9.90;85.01;100670.59;5047649;28;20033;-70
2022/04/22 00:23:46;;;;;;;4.38;1.20;;;;;;;9.83;85.32;100658.88;5023604;28;20498;-70
2022/04/22 00:26:12;;;;;;;1.83;1.33;;;;;;;9.81;85.51;100659.22;5048889;28;20025;-70
2022/04/22 00:28:37;;;;;;;2.10;0.95;;;;;;;9.78;85.85;100646.47;5046601;28;20102;-70
2022/04/22 00:31:03;;;;;;;0.52;0.52;;;;;;;9.69;86.16;100653.16;5032803;28;20036;-70
2022/04/22 00:33:28;;;;;;;2.63;0.93;;;;;;;9.69;86.24;100658.53;5050312;28;20486;-70
2022/04/22 00:35:54;;;;;;;1.52;1.00;;;;;;;9.66;86.49;100648.47;5051420;28;20025;-70
2022/04/22 00:38:19;;;;;;;1.33;0.75;;;;;;;9.67;86.09;100650.81;5050667;28;20040;-70
2022/04/22 00:40:44;;;;;;;0.90;0.80;;;;;;;9.62;86.51;100656.44;5050703;28;20068;-70
2022/04/22 00:43:17;;;;;;;1.30;0.73;;;;;;;9.61;86.94;100654.91;5043213;28;20402;-70
2022/04/22 00:45:43;;;;;;;0.95;0.85;;;;;;;9.59;86.96;100638.34;5053019;28;20098;-70
2022/04/22 00:48:09;;;;;;;0.55;0.52;;;;;;;9.55;86.93;100648.22;5046144;28;20045;-69
2022/04/22 00:50:35;;;;;;;1.70;1.10;;;;;;;9.48;87.43;100641.91;5052069;28;20040;-69
2022/04/22 00:53:01;;;;;;;2.10;0.82;;;;;;;9.43;87.16;100645.63;5035000;28;20021;-69
2022/04/22 00:55:28;;;;;;;12.30;0.98;;;;;;;9.46;87.42;100636.09;5039136;28;20159;-70
2022/04/22 00:57:53;;;;;;;0.60;0.60;;;;;;;9.48;87.10;100637.31;5051106;23;20535;-69
2022/04/22 01:00:20;;;;;;;0.60;0.60;;;;;;;9.46;86.90;100631.50;5088125;28;20028;-69
2022/04/22 01:02:45;;;;;;;1.08;0.75;;;;;;;9.44;87.34;100636.44;5082352;28;20028;-69
2022/04/22 01:10:39;;;;;;;0.90;0.63;;;;;;;9.42;86.81;100627.16;5068347;28;20060;-69
2022/04/22 01:13:07;;;;;;;0.65;0.65;;;;;;;9.38;86.94;100634.34;5060382;28;20085;-69
2022/04/22 01:15:34;;;;;;;0.73;0.73;;;;;;;9.32;87.17;100622.31;5050089;28;20033;-69
2022/04/22 01:18:00;;;;;;;0.95;0.85;;;;;;;9.34;87.27;100617.38;5052651;28;20091;-69
2022/04/22 01:20:26;;;;;;;0.98;0.57;;;;;;;9.29;87.28;100621.06;5071733;28;20024;-69
2022/04/22 01:22:51;;;;;;;1.58;0.80;;;;;;;9.29;87.32;100612.25;5062758;28;20446;-68
2022/04/22 01:25:16;;;;;;;1.55;0.70;;;;;;;9.23;87.66;100614.44;5033388;28;20078;-69
2022/04/22 01:27:44;;;;;;;0.80;0.80;;;;;;;9.18;87.91;100611.19;5051860;28;20035;-69
2022/04/22 01:30:10;;;;;;;1.85;0.95;;;;;;;9.14;87.89;100615.72;5063344;28;20047;-69
2022/04/22 01:32:35;;;;;;;0.93;0.70;;;;;;;9.10;88.04;100616.41;5070815;28;20036;-69
2022/04/22 01:35:03;;;;;;;0.82;0.82;;;;;;;9.08;88.04;100607.91;5048596;28;20108;-69
2022/04/22 01:37:29;;;;;;;0.35;0.35;;;;;;;9.06;88.16;100604.78;5070028;28;20488;-69
2022/04/22 01:39:54;;;;;;;0.50;0.50;;;;;;;9.02;88.75;100609.28;5070648;28;20040;-69
2022/04/22 01:42:20;;;;;;;0.35;0.35;;;;;;;9.01;88.54;100607.72;5037645;28;20037;-68
2022/04/22 01:44:46;;;;;;;0.40;0.40;;;;;;;9.05;88.86;100608.59;5043134;28;20036;-69
2022/04/22 01:47:11;;;;;;;1.33;1.15;;;;;;;9.10;88.15;100607.56;5062631;28;20111;-69
2022/04/22 01:49:37;;;;;;;0.75;0.70;;;;;;;9.00;88.69;100600.78;5070100;28;20027;-68
2022/04/22 01:52:02;;;;;;;1.60;0.73;;;;;;;8.98;88.97;100600.34;5053466;28;20117;-69
2022/04/22 01:54:28;;;;;;;0.65;0.45;;;;;;;8.94;89.47;100602.16;5069821;28;20033;-68
2022/04/22 01:56:53;;;;;;;0.85;0.57;;;;;;;8.98;89.45;100603.03;5071098;28;20036;-68
2022/04/22 01:59:19;;;;;;;1.13;1.02;;;;;;;8.98;89.26;100599.59;5048754;28;20039;-68
2022/04/22 02:01:44;;;;;;;3.83;0.90;;;;;;;8.92;89.29;100590.22;5051674;28;20404;-69
2022/04/22 02:04:09;;;;;;;0.47;0.30;;;;;;;8.90;89.07;100589.78;5066486;28;20032;-68
2022/04/22 02:06:35;;;;;;;0.32;0.30;;;;;;;8.87;89.12;100593.94;5057303;28;20036;-68
2022/04/22 02:09:00;;;;;;;1.05;0.73;;;;;;;8.77;89.57;100581.00;5068825;28;20055;-68
2022/04/22 02:11:25;;;;;;;1.27;0.57;;;;;;;8.95;88.55;100587.63;5053533;28;20097;-69
2022/04/22 02:13:51;;;;;;;3.85;0.57;;;;;;;8.85;89.09;100585.44;5068148;28;20075;-69
2022/04/22 02:16:17;;;;;;;0.85;0.43;;;;;;;8.83;89.38;100585.00;5060272;28;20451;-68
2022/04/22 02:18:42;;;;;;;0.55;0.55;;;;;;;8.77;90.09;100586.38;5069928;28;20072;-68
2022/04/22 02:21:09;;;;;;;2.80;0.68;;;;;;;8.74;90.30;100579.03;5061083;28;20063;-69
2022/04/22 02:23:35;;;;;;;0.85;0.68;;;;;;;8.79;89.67;100578.75;5047936;28;20102;-69
2022/04/22 02:26:02;;;;;;;1.13;0.70;;;;;;;8.86;89.58;100576.28;5063411;28;20481;-68
2022/04/22 02:28:33;;;;;;;0.90;0.55;;;;;;;8.77;89.64;100572.94;5070233;28;20477;-69
2022/04/22 02:31:10;;;;;;;0.30;0.20;;;;;;;8.72;90.35;100572.44;5060875;28;20054;-69
2022/04/22 02:33:37;;;;;;;0.85;0.57;;;;;;;8.69;90.85;100565.84;5064666;28;20036;-69
2022/04/22 02:36:04;;;;;;;0.28;0.25;;;;;;;8.67;90.98;100565.41;5065697;28;20039;-69
2022/04/22 02:38:30;;;;;;;0.47;0.47;;;;;;;8.65;91.30;100564.97;5062108;28;20450;-69
2022/04/22 02:46:27;;;;;;;1.63;0.50;;;;;;;8.78;90.77;100563.78;5050260;28;20059;-69
2022/04/22 02:48:56;;;;;;;0.98;0.75;;;;;;;8.69;90.67;100565.84;5066922;28;20080;-69
2022/04/22 02:51:21;;;;;;;0.38;0.38;;;;;;;8.59;91.66;100558.31;5069368;28;20103;-69
2022/04/22 02:53:46;;;;;;;2.35;0.88;;;;;;;8.79;90.95;100565.34;5069480;28;20124;-69
2022/04/22 02:56:12;;;;;;;0.77;0.77;;;;;;;8.61;92.15;100558.75;5057050;28;20024;-69
2022/04/22 02:58:40;;;;;;;0.50;0.50;;;;;;;8.56;92.67;100550.13;5068778;28;20484;-69
2022/04/22 03:01:05;;;;;;;0.20;0.20;;;;;;;8.62;91.69;100554.91;5062206;28;20108;-69
2022/04/22 03:03:32;;;;;;;0.98;0.70;;;;;;;8.59;91.75;100552.16;5068633;28;20108;-69
2022/04/22 03:05:58;;;;;;;11.45;0.63;;;;;;;8.52;92.50;100555.41;5061420;28;20060;-69
2022/04/22 03:08:23;;;;;;;0.70;0.70;;;;;;;8.53;92.28;100554.31;5069983;28;20121;-69
2022/04/22 03:10:49;;;;;;;0.65;0.65;;;;;;;8.44;92.63;100552.91;5062487;28;20111;-69
2022/04/22 03:13:15;;;;;;;2.33;1.27;;;;;;;8.53;92.58;100554.31;5069059;28;20078;-69
2022/04/22 03:15:41;;;;;;;0.30;0.30;;;;;;;8.46;92.67;100543.38;5067437;28;20036;-68
2022/04/22 03:18:08;;;;;;;0.32;0.32;;;;;;;8.41;93.02;100548.19;5062991;28;20077;-69
2022/04/22 03:20:33;;;;;;;0.43;0.40;;;;;;;8.37;93.33;100550.78;5047789;28;20106;-69
2022/04/22 03:22:59;;;;;;;1.05;0.65;;;;;;;8.40;93.27;100528.63;5067719;28;20036;-69
2022/04/22 03:25:24;;;;;;;0.43;0.43;;;;;;;8.62;91.57;100541.50;5070144;28;20520;-69
2022/04/22 03:27:51;;;;;;;0.52;0.32;;;;;;;8.41;92.52;100538.25;5067579;28;20036;-69
2022/04/22 03:30:17;;;;;;;0.98;0.82;;;;;;;8.33;93.30;100524.97;5060919;28;20480;-69
2022/04/22 03:32:43;;;;;;;1.02;0.52;;;;;;;8.57;91.78;100536.41;5062150;28;20059;-68
2022/04/22 03:35:09;;;;;;;0.40;0.40;;;;;;;8.46;92.41;100529.94;5049975;28;20037;-69
2022/04/22 03:37:35;;;;;;;0.85;0.70;;;;;;;8.47;91.97;100528.84;5047672;28;20107;-69
2022/04/22 03:40:01;;;;;;;1.25;0.60;;;;;;;8.31;93.29;100517.28;5038206;28;20040;-69
2022/04/22 03:42:28;;;;;;;0.60;0.60;;;;;;;8.30;93.70;100525.69;5062212;28;20093;-69
2022/04/22 03:44:56;;;;;;;0.85;0.63;;;;;;;8.24;93.76;100506.34;5059691;28;20075;-69
2022/04/22 03:47:22;;;;;;;0.50;0.40;;;;;;;8.34;92.98;100515.81;5062865;28;20128;-69
2022/04/22 03:49:48;;;;;;;0.40;0.40;;;;;;;8.28;93.67;100511.81;5068193;28;20115;-69
2022/04/22 03:52:13;;;;;;;0.77;0.55;;;;;;;8.24;94.05;100498.28;5065168;28;20042;-69
2022/04/22 03:54:39;;;;;;;1.08;0.65;;;;;;;8.29;93.49;100513.38;5060498;28;20036;-69
2022/04/22 03:59:48;;;;;;;0.47;0.30;;;;;;;8.35;92.96;100503.97;5061363;28;20217;-69
2022/04/22 04:02:14;;;;;;;0.43;0.40;;;;;;;8.26;93.88;100501.44;5056666;28;20032;-69
2022/04/22 04:04:39;;;;;;;1.95;1.02;;;;;;;8.23;94.50;100506.69;5056011;28;20083;-69
2022/04/22 04:07:04;;;;;;;6.60;0.68;;;;;;;8.34;94.26;100503.19;5056269;28;20473;-69
2022/04/22 04:17:41;;;;;;;0.30;0.30;;;;;;;8.48;93.42;100500.09;5061421;28;20044;-69
2022/04/22 04:25:36;;;;;;;0.63;0.63;;;;;;;8.25;95.42;100488.34;5070846;28;20473;-69
2022/04/22 04:28:03;;;;;;;0.60;0.60;;;;;;;8.30;95.07;100496.97;5070243;28;20071;-69
2022/04/22 04:30:29;;;;;;;0.43;0.43;;;;;;;8.38;94.89;100497.91;5063067;28;20378;-69
2022/04/22 04:32:54;;;;;;;1.95;0.80;;;;;;;8.43;94.96;100505.72;5056354;28;20119;-69
2022/04/22 04:35:20;;;;;;;0.60;0.60;;;;;;;8.50;94.54;100501.31;5068128;28;20034;-69
2022/04/22 04:37:45;;;;;;;0.63;0.60;;;;;;;8.29;96.19;100499.97;5063770;28;20428;-68
2022/04/22 04:40:11;;;;;;;2.10;0.65;;;;;;;8.40;95.91;100496.44;5043908;28;20035;-69
2022/04/22 04:42:36;;;;;;;0.22;0.22;;;;;;;8.48;95.85;100508.91;5060154;28;20074;-69
2022/04/22 04:45:03;;;;;;;2.47;0.80;;;;;;;8.40;95.86;100496.44;5058638;28;20765;-69
2022/04/22 04:47:29;;;;;;;2.00;0.88;;;;;;;8.40;96.55;100496.44;5063944;28;20565;-69
2022/04/22 04:49:55;;;;;;;0.60;0.60;;;;;;;8.37;97.05;100483.72;5070077;28;20036;-69
2022/04/22 04:52:20;;;;;;;0.20;0.20;;;;;;;8.50;95.90;100489.78;5070469;28;20036;-69
2022/04/22 04:54:47;;;;;;;0.90;0.57;;;;;;;8.33;97.45;100485.53;5071150;28;20066;-69
2022/04/22 04:57:13;;;;;;;0.50;0.50;;;;;;;8.47;96.70;100490.47;5058953;28;20032;-69
2022/04/22 04:59:38;;;;;;;0.75;0.70;;;;;;;8.49;96.90;100489.03;5062592;28;20031;-69
2022/04/22 05:02:03;;;;;;;0.60;0.55;;;;;;;8.55;97.06;100490.34;5057701;28;20408;-69
2022/04/22 05:04:29;;;;;;;0.77;0.43;;;;;;;8.68;96.70;100485.66;5070942;28;20036;-69
2022/04/22 05:06:54;;;;;;;0.32;0.32;;;;;;;8.86;94.85;100481.50;5070752;28;20162;-69
2022/04/22 05:09:20;;;;;;;0.85;0.60;;;;;;;8.66;96.20;100483.31;5061151;28;20058;-68
2022/04/22 05:11:45;;;;;;;1.75;0.93;;;;;;;8.80;95.74;100489.06;5054283;28;20031;-69
2022/04/22 05:14:11;;;;;;;3.15;1.17;;;;;;;8.74;96.76;100481.59;5055740;28;20028;-69
2022/04/22 05:16:36;;;;;;;0.55;0.55;;;;;;;8.96;95.38;100481.00;5052283;28;20089;-69
2022/04/22 05:19:02;;;;;;;1.10;0.95;;;;;;;9.16;94.17;100471.06;5049136;28;20142;-69
2022/04/22 05:21:27;;;;;;;1.35;0.98;;;;;;;9.03;95.55;100479.25;5066555;28;20077;-69
2022/04/22 05:23:52;;;;;;;1.40;0.75;;;;;;;9.01;95.85;100470.75;5060553;28;20076;-69
2022/04/22 05:26:18;;;;;;;1.90;1.02;;;;;;;9.06;95.91;100470.47;5058743;28;20032;-69
2022/04/22 05:28:43;;;;;;;2.00;0.70;;;;;;;9.10;95.77;100470.56;5052101;28;20944;-68
2022/04/22 05:33:55;;;;;;;1.85;1.00;;;;;;;9.19;96.60;100473.84;5062991;28;20040;-69
2022/04/22 05:36:20;;;;;;;13.40;0.73;;;;;;;9.29;96.94;100478.66;5056222;28;20025;-68
2022/04/22 05:38:45;;;;;;;0.73;0.65;;;;;;;9.52;95.87;100490.34;5055939;28;20041;-69
2022/04/22 05:41:11;;;;;;;2.17;0.75;;;;;;;9.66;95.29;100484.47;5053846;28;20082;-69
2022/04/22 05:43:39;;;;;;;0.47;0.47;;;;;;;9.87;93.48;100477.63;5052282;28;20029;-69
2022/04/22 05:46:04;;;;;;;1.10;0.43;;;;;;;10.32;91.88;100490.44;5034945;28;20397;-69
2022/04/22 05:48:29;;;;;;;3.70;1.20;;;;;;;10.51;90.14;100476.16;5065939;28;20028;-69
2022/04/22 05:50:55;;;;;;;2.05;1.25;;;;;;;10.80;89.85;100478.22;5049136;28;20482;-69
2022/04/22 05:53:21;;;;;;;2.55;0.88;;;;;;;11.26;86.92;100470.81;5053040;28;20036;-69
2022/04/22 05:55:46;;;;;;;1.95;0.90;;;;;;;11.54;86.21;100473.91;5052320;28;20036;-69
2022/04/22 05:58:12;;;;;;;2.30;0.95;;;;;;;11.89;83.09;100482.47;5050179;28;20943;-69
2022/04/22 06:00:37;;;;;;;1.90;0.77;;;;;;;12.15;81.78;100479.72;5056555;28;20032;-68
2022/04/22 06:03:03;;;;;;;3.33;1.00;;;;;;;12.17;81.07;100480.13;5056752;28;20524;-69
2022/04/22 06:05:29;;;;;;;2.15;1.08;;;;;;;12.26;80.78;100480.59;5048549;28;20037;-69
2022/04/22 06:10:40;;;;;;;2.15;0.63;;;;;;;12.57;77.79;100490.16;5061149;28;20452;-69
2022/04/22 06:13:06;;;;;;;0.80;0.70;;;;;;;12.55;79.08;100479.72;5069893;28;20036;-69
2022/04/22 06:15:32;;;;;;;3.60;0.80;;;;;;;12.70;77.82;100497.63;5049841;28;20033;-69
2022/04/22 06:17:59;;;;;;;0.80;0.70;;;;;;;12.58;78.34;100494.44;5052100;28;20067;-68
2022/04/22 06:20:25;;;;;;;1.05;0.63;;;;;;;12.72;78.08;100499.19;5064509;28;20024;-69
2022/04/22 06:22:51;;;;;;;6.47;0.70;;;;;;;12.66;78.38;100501.44;5056204;28;20039;-69
2022/04/22 06:25:16;;;;;;;1.38;0.65;;;;;;;12.77;77.89;100493.44;5063817;28;20029;-70
2022/04/22 06:27:44;;;;;;;1.55;0.63;;;;;;;12.76;77.41;100506.16;5056234;28;20048;-69
2022/04/22 06:30:15;;;;;;;0.77;0.70;;;;;;;12.77;77.13;100504.25;5050510;28;20036;-68
2022/04/22 06:32:43;;;;;;;0.52;0.52;;;;;;;12.86;77.64;100504.69;5066506;28;20360;-69
2022/04/22 06:35:10;;;;;;;2.42;0.90;;;;;;;12.86;77.72;100494.66;5051655;28;20029;-69
2022/04/22 06:37:40;;;;;;;4.10;1.10;;;;;;;12.93;77.41;100483.16;5047330;28;20074;-69
2022/04/22 06:45:47;;;;;;;0.88;0.68;;;;;;;13.07;76.39;100470.53;5068246;28;20064;-68
2022/04/22 06:48:35;;;;;;;1.15;0.77;;;;;;;13.18;76.64;100465.22;5064571;28;20527;-68
2022/04/22 06:51:02;;;;;;;1.17;1.08;;;;;;;13.28;76.17;100462.56;5067196;28;20115;-69
2022/04/22 06:53:28;;;;;;;1.42;0.82;;;;;;;13.37;76.23;100468.44;5037853;28;20419;-69
2022/04/22 06:55:58;;;;;;;0.60;0.52;;;;;;;13.47;75.89;100467.69;5038720;28;20046;-69
2022/04/22 06:58:26;;;;;;;0.93;0.63;;;;;;;13.39;74.91;100476.16;5019255;22;20051;-70
2022/04/22 07:00:52;;;;;;;0.93;0.77;;;;;;;13.44;75.62;100473.88;5097161;28;20101;-70
2022/04/22 07:03:17;;;;;;;3.72;0.85;;;;;;;13.64;73.80;100473.59;5109345;28;20921;-69
2022/04/22 07:05:45;;;;;;;0.95;0.47;;;;;;;13.68;73.74;100480.56;5110857;28;20035;-69
2022/04/22 07:08:14;;;;;;;0.82;0.63;;;;;;;13.93;72.25;100475.25;5097005;28;20040;-69
2022/04/22 07:10:41;;;;;;;1.38;0.70;;;;;;;13.85;72.71;100469.03;5094305;28;20467;-69
2022/04/22 07:13:07;;;;;;;1.38;0.95;;;;;;;14.01;73.28;100474.91;5088469;28;20040;-70
2022/04/22 07:15:33;;;;;;;1.63;0.82;;;;;;;14.04;74.31;100476.84;5093735;28;20114;-70
2022/04/22 07:17:58;;;;;;;1.15;0.70;;;;;;;14.17;74.19;100474.53;5110190;28;20547;-69
2022/04/22 07:20:24;;;;;;;1.27;0.88;;;;;;;14.38;72.84;100472.69;5101499;28;20107;-70
2022/04/22 07:22:50;;;;;;;1.42;0.73;;;;;;;14.42;71.93;100478.91;5081593;28;20111;-69
2022/04/22 07:25:17;;;;;;;0.60;0.60;;;;;;;14.59;71.65;100482.03;5091143;28;20711;-69
2022/04/22 07:27:44;;;;;;;0.75;0.52;;;;;;;14.79;71.31;100475.84;5093465;28;20032;-69
2022/04/22 07:30:15;;;;;;;0.70;0.60;;;;;;;14.78;70.57;100477.00;5072465;28;20035;-69
2022/04/22 07:32:41;;;;;;;0.60;0.60;;;;;;;14.94;67.72;100471.97;5086925;28;20046;-70
2022/04/22 07:35:12;;;;;;;0.93;0.38;;;;;;;14.99;65.72;100478.94;5092836;28;20027;-70
2022/04/22 07:37:51;;;;;;;4.72;0.90;;;;;;;14.85;67.95;100479.72;5097442;28;20030;-69
2022/04/22 07:40:22;;;;;;;0.55;0.55;;;;;;;15.18;65.60;100486.66;5094583;28;20040;-71
2022/04/22 07:48:24;;;;;;;0.70;0.70;;;;;;;15.24;65.57;100487.81;5106331;28;20047;-70
2022/04/22 07:50:50;;;;;;;0.73;0.40;;;;;;;15.21;64.77;100481.22;5113011;28;20065;-70
2022/04/22 07:53:19;;;;;;;0.50;0.50;;;;;;;15.44;64.66;100482.78;5109128;28;20124;-70
2022/04/22 07:55:46;;;;;;;0.38;0.28;;;;;;;15.57;64.15;100478.47;5109651;28;20031;-70
2022/04/22 07:58:13;;;;;;;2.88;1.23;;;;;;;15.33;64.20;100475.41;5097423;28;20062;-70
2022/04/22 08:00:40;;;;;;;0.40;0.40;;;;;;;15.58;64.80;100469.19;5094211;28;20123;-70
2022/04/22 08:03:07;;;;;;;2.05;0.80;;;;;;;15.76;65.37;100475.31;5113808;28;20062;-70
2022/04/22 08:05:32;;;;;;;2.00;0.85;;;;;;;16.01;64.79;100475.97;5109258;28;20051;-70
2022/04/22 08:07:58;;;;;;;0.88;0.85;;;;;;;16.15;64.16;100478.63;5105518;28;20031;-70
2022/04/22 08:10:23;;;;;;;0.45;0.40;;;;;;;16.32;61.81;100474.28;5093792;28;20488;-69
2022/04/22 08:12:50;;;;;;;0.45;0.45;;;;;;;16.45;61.36;100481.56;5079578;28;20016;-70
2022/04/22 08:15:16;;;;;;;0.73;0.60;;;;;;;16.43;60.85;100483.13;5108443;28;20027;-71
2022/04/22 08:17:41;;;;;;;1.00;0.52;;;;;;;16.43;62.04;100483.13;5111434;28;20369;-70
2022/04/22 08:20:07;;;;;;;0.30;0.30;;;;;;;16.77;62.15;100481.38;5113835;28;20028;-70
2022/04/22 08:22:33;;;;;;;1.45;0.70;;;;;;;16.83;61.19;100485.97;5113288;28;20032;-69
2022/04/22 08:24:59;;;;;;;1.55;0.63;;;;;;;17.00;60.79;100481.56;5108435;28;20031;-69
2022/04/22 08:27:26;;;;;;;2.78;0.70;;;;;;;17.25;59.68;100479.38;5092702;28;20043;-70
2022/04/22 08:29:52;;;;;;;1.13;0.50;;;;;;;17.16;59.15;100487.25;5108167;28;20048;-70
2022/04/22 08:32:21;;;;;;;1.30;0.63;;;;;;;17.12;59.60;100486.50;5089128;28;20047;-70
2022/04/22 08:34:46;;;;;;;0.52;0.52;;;;;;;17.14;59.38;100476.78;5110218;28;20861;-70
2022/04/22 08:37:12;;;;;;;1.05;0.70;;;;;;;17.17;59.88;100475.97;5108110;28;20035;-69
2022/04/22 08:39:37;;;;;;;0.47;0.47;;;;;;;17.38;59.82;100479.66;5102335;28;20039;-70
2022/04/22 08:42:03;;;;;;;1.15;0.68;;;;;;;17.43;59.73;100479.22;5073939;28;20361;-69
2022/04/22 08:44:31;;;;;;;0.80;0.77;;;;;;;17.57;57.56;100485.31;5097178;28;20088;-69
2022/04/22 08:49:59;;;;;;;0.73;0.50;;;;;;;17.93;58.97;100483.72;5093131;28;20040;-69
2022/04/22 08:52:26;;;;;;;3.45;0.65;;;;;;;17.87;57.65;100498.97;5097533;28;20032;-70
2022/04/22 08:54:54;;;;;;;5.00;0.68;;;;;;;18.13;58.35;100496.72;5096344;28;20024;-70
2022/04/22 08:57:20;;;;;;;0.73;0.65;;;;;;;18.03;58.65;100492.94;5091275;28;20036;-70
2022/04/22 08:59:45;;;;;;;0.70;0.60;;;;;;;18.14;57.63;100501.00;5091915;28;20455;-70
2022/04/22 09:02:15;;;;;;;1.52;0.52;;;;;;;18.10;55.36;100494.81;5093496;28;20051;-70
2022/04/22 09:04:40;;;;;;;1.35;0.70;;;;;;;17.92;56.87;100498.50;5095909;28;20071;-70
2022/04/22 09:07:11;;;;;;;0.70;0.57;;;;;;;18.30;57.18;100504.66;5106619;28;20051;-70
2022/04/22 09:09:39;;;;;;;1.83;0.65;;;;;;;18.14;56.43;100501.75;5086130;28;20098;-70
2022/04/22 09:12:13;;;;;;;1.08;0.50;;;;;;;18.25;56.31;100494.22;5110849;28;20036;-70
2022/04/22 09:14:45;;;;;;;0.52;0.52;;;;;;;18.26;55.47;100493.00;5089485;28;20066;-69
2022/04/22 09:17:32;;;;;;;1.40;0.80;;;;;;;18.37;57.17;100496.34;5102281;28;20058;-70
2022/04/22 09:19:58;;;;;;;1.33;0.63;;;;;;;18.57;58.05;100488.31;5112603;28;20048;-69
2022/04/22 09:22:26;;;;;;;1.85;0.82;;;;;;;18.68;57.22;100486.19;5087398;28;20554;-70
2022/04/22 09:24:56;;;;;;;1.95;1.48;;;;;;;18.69;56.06;100482.28;5104320;28;20042;-70
2022/04/22 09:27:42;;;;;;;1.88;0.73;;;;;;;18.64;54.87;100494.44;5105431;28;20491;-70
2022/04/22 09:30:09;;;;;;;0.82;0.60;;;;;;;18.47;55.86;100491.97;5109883;28;20035;-70
2022/04/22 09:32:37;;;;;;;2.13;0.63;;;;;;;18.49;57.39;100487.66;5101240;28;20031;-70
2022/04/22 09:35:10;;;;;;;0.85;0.63;;;;;;;18.76;56.97;100482.16;5090090;28;20023;-70
2022/04/22 09:43:32;;;;;;;2.72;0.90;;;;;;;18.82;55.61;100469.59;5105784;28;20031;-70
2022/04/22 09:45:58;;;;;;;2.15;1.00;;;;;;;18.97;54.13;100457.25;5095964;28;20376;-70
2022/04/22 09:48:23;;;;;;;0.95;0.60;;;;;;;19.31;54.25;100465.25;5100657;28;20042;-70
2022/04/22 09:50:53;;;;;;;2.42;1.00;;;;;;;19.47;52.21;100466.13;5093713;28;20080;-70
2022/04/22 09:53:33;;;;;;;0.77;0.50;;;;;;;19.10;51.98;100457.44;5097299;27;20391;-70
2022/04/22 09:56:05;;;;;;;0.93;0.70;;;;;;;19.05;52.25;100461.41;5111031;28;20231;-69
2022/04/22 09:58:30;;;;;;;1.42;0.60;;;;;;;18.82;54.37;100458.69;5091237;28;20042;-69
2022/04/22 10:01:01;;;;;;;1.02;0.63;;;;;;;18.88;53.97;100463.25;5102579;28;20484;-68
2022/04/22 10:03:29;;;;;;;2.50;0.70;;;;;;;18.84;53.21;100453.59;5073640;28;20031;-69
2022/04/22 10:05:55;;;;;;;1.27;0.75;;;;;;;19.03;53.17;100460.31;5092327;28;20093;-71
2022/04/22 10:08:22;;;;;;;0.82;0.63;;;;;;;19.04;52.04;100470.78;5093259;28;20040;-69
2022/04/22 10:10:50;;;;;;;2.75;1.00;;;;;;;18.66;52.88;100466.75;5059320;28;20075;-68
2022/04/22 10:13:17;;;;;;;1.50;0.85;;;;;;;18.75;53.07;100469.72;5090943;28;20084;-69
2022/04/22 10:15:45;;;;;;;0.82;0.68;;;;;;;18.49;53.35;100465.06;5103432;28;20039;-70
2022/04/22 10:18:13;;;;;;;1.15;0.75;;;;;;;18.35;53.75;100463.28;5076138;28;20421;-68
2022/04/22 10:20:40;;;;;;;1.08;0.90;;;;;;;18.19;53.00;100460.41;5095493;28;20504;-69
2022/04/22 10:23:05;;;;;;;2.83;1.02;;;;;;;18.17;53.52;100459.25;5097651;27;20039;-69
2022/04/22 10:25:33;;;;;;;3.85;0.70;;;;;;;17.83;53.23;100471.00;5090454;28;20472;-69
2022/04/22 10:28:10;;;;;;;0.38;0.38;;;;;;;17.66;54.09;100469.25;5103755;27;20504;-69
2022/04/22 10:30:38;;;;;;;1.48;0.50;;;;;;;17.82;54.80;100465.94;5107136;28;20036;-71
2022/04/22 10:33:05;;;;;;;1.00;0.75;;;;;;;17.84;54.08;100461.66;5098417;27;20036;-68
2022/04/22 10:35:37;;;;;;;1.60;0.90;;;;;;;17.82;53.26;100458.56;5106027;28;20106;-68
2022/04/22 10:38:04;;;;;;;1.05;0.80;;;;;;;17.89;53.72;100457.69;5074130;28;20549;-68
2022/04/22 10:40:29;;;;;;;1.45;0.80;;;;;;;17.75;54.40;100458.63;5094583;28;20036;-69
2022/04/22 10:42:55;;;;;;;1.38;0.47;;;;;;;17.83;55.70;100462.03;5105930;28;20122;-69
2022/04/22 10:48:25;;;;;;;1.13;0.80;;;;;;;17.67;55.17;100467.31;5106629;28;20403;-69
2022/04/22 10:50:58;;;;;;;1.25;0.70;;;;;;;17.61;54.85;100474.38;5079801;28;20028;-69
2022/04/22 10:53:33;;;;;;;0.88;0.50;;;;;;;17.81;54.50;100459.72;5074362;28;20040;-69
2022/04/22 10:56:23;;;;;;;0.65;0.43;;;;;;;17.80;54.43;100471.81;5092998;28;20103;-69
2022/04/22 10:59:21;;;;;;;1.20;1.10;;;;;;;17.67;55.30;100478.22;5094553;27;20043;-68
2022/04/22 11:01:47;;;;;;;0.98;0.57;;;;;;;17.59;54.22;100476.72;5102158;28;20038;-69
2022/04/22 11:04:26;;;;;;;3.40;0.70;;;;;;;17.48;55.13;100474.13;5108577;28;20071;-69
2022/04/22 11:06:52;;;;;;;1.00;0.57;;;;;;;17.71;55.66;100463.34;5093144;28;20048;-69
2022/04/22 11:09:31;;;;;;;3.55;1.13;;;;;;;17.90;55.76;100460.00;5091012;28;20038;-69
2022/04/22 11:11:58;;;;;;;1.40;0.63;;;;;;;18.03;54.69;100463.72;5091762;28;20028;-69
2022/04/22 11:14:25;;;;;;;0.75;0.52;;;;;;;18.09;55.06;100469.50;5091634;28;20032;-69
2022/04/22 11:16:52;;;;;;;4.45;0.70;;;;;;;18.10;54.94;100467.56;5090373;28;20050;-68
2022/04/22 11:19:18;;;;;;;0.50;0.47;;;;;;;18.16;54.67;100466.66;5098186;28;20035;-68
2022/04/22 11:21:44;;;;;;;0.88;0.40;;;;;;;18.12;54.83;100473.38;5091526;28;20028;-70
2022/04/22 11:24:20;;;;;;;0.85;0.47;;;;;;;18.19;54.88;100470.53;5092670;28;20043;-69
2022/04/22 11:26:45;;;;;;;1.50;0.50;;;;;;;18.03;55.28;100473.84;5090675;28;20111;-69
2022/04/22 11:29:13;;;;;;;0.80;0.45;;;;;;;18.18;54.95;100460.78;5090731;28;20139;-72
2022/04/22 11:31:40;;;;;;;2.33;0.80;;;;;;;18.13;54.87;100466.72;5090189;28;20032;-69
2022/04/22 11:34:13;;;;;;;2.42;1.15;;;;;;;17.98;55.68;100460.69;5098184;28;20051;-69
2022/04/22 11:36:47;;;;;;;4.07;0.70;;;;;;;17.72;54.56;100454.00;5105134;28;20491;-70
2022/04/22 11:39:23;;;;;;;1.90;0.60;;;;;;;17.90;55.91;100442.88;5108438;28;20788;-68
2022/04/22 11:42:01;;;;;;;1.15;0.65;;;;;;;18.20;55.56;100439.34;5107408;28;20036;-68
2022/04/22 11:44:30;;;;;;;1.77;0.88;;;;;;;18.26;53.83;100437.69;5103783;28;20027;-68
2022/04/22 11:47:00;;;;;;;2.35;0.52;;;;;;;18.21;53.69;100443.63;5104185;28;20046;-68
2022/04/22 11:49:30;;;;;;;1.00;0.52;;;;;;;18.33;53.71;100440.34;5093320;28;20031;-68
2022/04/22 11:51:56;;;;;;;0.55;0.45;;;;;;;18.48;53.19;100445.22;5080549;28;20130;-70
2022/04/22 11:54:22;;;;;;;0.98;0.60;;;;;;;18.40;52.41;100432.03;5096809;28;20161;-68
2022/04/22 11:56:49;;;;;;;1.65;0.63;;;;;;;18.49;53.07;100437.78;5093293;28;20042;-70
2022/04/22 11:59:14;;;;;;;1.50;0.57;;;;;;;18.51;52.75;100433.47;5096987;28;20542;-70
2022/04/22 12:10:12;;;;;;;1.25;0.80;;;;;;;19.12;52.74;100444.91;5029928;28;20037;-68
2022/04/22 12:12:50;;;;;;;3.63;1.30;;;;;;;19.28;51.51;100436.03;5064886;28;20079;-68
2022/04/22 12:15:19;;;;;;;1.00;0.70;;;;;;;19.44;51.73;100444.34;5076550;28;20020;-69
2022/04/22 12:17:46;;;;;;;0.50;0.50;;;;;;;19.52;51.87;100430.13;5094081;28;20047;-68
2022/04/22 12:20:12;;;;;;;0.45;0.35;;;;;;;19.55;51.02;100451.13;5087958;28;20028;-70
2022/04/22 12:22:38;;;;;;;1.73;0.57;;;;;;;19.43;51.56;100429.94;5088245;28;20377;-69
2022/04/22 12:25:16;;;;;;;2.15;0.65;;;;;;;19.57;52.13;100434.31;5076767;27;20023;-69
2022/04/22 12:27:43;;;;;;;1.38;0.70;;;;;;;19.46;52.71;100426.34;5096190;28;20028;-70
2022/04/22 12:30:14;;;;;;;3.30;0.77;;;;;;;19.25;52.01;100421.25;5096397;28;20036;-70
2022/04/22 12:32:41;;;;;;;1.33;0.50;;;;;;;19.08;52.65;100411.44;5075668;28;20036;-71
2022/04/22 12:35:17;;;;;;;1.02;0.52;;;;;;;19.36;52.99;100419.13;5094434;28;20032;-71